Flight Track Log - Related Links

Times and Time Zones

All times are in EDT time to prevent confusion due to time zone crossing. See the N27XP flight status page for this flight to view local times or setup timezone preferences in your user account.

Time Position Orientation Groundspeed Altitude Reporting Facility
EDT Latitude Longitude Course Direction KTS km/h meters Rate Location/Type
Mon 12:11:28 34.0000 -84.6333 195° South 192 356 762  Level Atlanta TRACON
Mon 12:12:28 33.9500 -84.6500 195° South 181 335 1,676 549 Climbing Atlanta TRACON
Mon 12:13:28 33.9333 -84.6000 112° Southeast 230 426 1,859 457 Climbing Atlanta TRACON
Mon 12:14:28 33.9333 -84.5167 90° East 252 467 2,591 764 Climbing Atlanta TRACON
Mon 12:15:42 33.8939 -84.4217 117° Southeast 259 480 3,566 587 Climbing Atlanta Center
Mon 12:16:42 33.8647 -84.3364 112° Southeast 273 505 3,901 366 Climbing Atlanta Center
Mon 12:17:42 33.8650 -84.2414 90° East 292 541 4,298 488 Climbing Atlanta Center
Mon 12:18:42 33.8881 -84.1289 76° East 310 575 4,877 549 Climbing Atlanta Center
Mon 12:19:42 33.9236 -84.0189 69° East 332 615 5,395 411 Climbing Atlanta Center
Mon 12:20:42 33.9653 -83.9061 66° East 355 658 5,700 366 Climbing Atlanta Center
Mon 12:21:42 34.0028 -83.7858 69° East 376 697 6,126 427 Climbing Atlanta Center
Mon 12:22:42 34.0233 -83.6603 79° East 371 687 6,553 411 Climbing Atlanta Center
Mon 12:23:42 34.0436 -83.5325 79° East 379 702 6,949 381 Climbing Atlanta Center
Mon 12:24:42 34.0639 -83.3894 80° East 384 711 7,315 320 Climbing Atlanta Center
Mon 12:25:42 34.0881 -83.2586 77° East 395 732 7,590 152 Climbing Atlanta Center
Mon 12:26:42 34.1289 -83.1328 69° East 395 732 7,620 15 Climbing Atlanta Center
Mon 12:27:42 34.1656 -82.9969 72° East 407 753 7,620  Level Atlanta Center
Mon 12:28:42 34.2081 -82.8658 69° East 414 766 7,620  Level Atlanta Center
Mon 12:29:00 34.1888 -82.8614 69° East  Level FlightAware Approximate
Mon 12:29:42 34.2528 -82.7294 68° East 435 806 7,620  Level Atlanta Center
Mon 12:30:42 34.2869 -82.6158 70° East 435 806 7,620  Level Atlanta Center
Mon 12:31:42 34.3269 -82.4667 72° East 430 797 7,620  Level Atlanta Center
Mon 12:32:42 34.3542 -82.3253 77° East 430 797 7,620  Level Atlanta Center
Mon 12:33:42 34.3833 -82.1786 76° East 430 797 7,620  Level Atlanta Center
Mon 12:34:42 34.4208 -82.0369 72° East 435 806 7,620 -15 Level Atlanta Center
Mon 12:35:42 34.4686 -81.8997 67° East 435 806 7,590 -137 Descending Atlanta Center
Mon 12:36:42 34.5225 -81.7622 65° Northeast 440 814 7,346 -137 Descending Atlanta Center
Mon 12:37:42 34.5656 -81.6247 69° East 440 814 7,315 -15 Descending Atlanta Center
Mon 12:38:42 34.6108 -81.4822 69° East 440 814 7,315  Level Atlanta Center
Mon 12:39:42 34.6578 -81.3317 69° East 435 806 7,315  Level Atlanta Center
Mon 12:40:42 34.6983 -81.1914 71° East 435 806 7,315 -30 Level Atlanta Center
Mon 12:41:42 34.7450 -81.0533 68° East 440 814 7,254 -152 Descending Atlanta Center
Mon 12:42:42 34.7922 -80.9353 64° Northeast 427 790 7,010 -122 Descending Atlanta Center
Mon 12:43:42 34.8642 -80.8086 55° Northeast 437 810 7,010 -137 Level Atlanta Center
Mon 12:44:42 34.9339 -80.6869 55° Northeast 444 822 6,736 -305 Descending Atlanta Center
Mon 12:45:42 34.9864 -80.5503 65° Northeast 439 813 6,401 -549 Descending Atlanta Center
Mon 12:46:42 35.0328 -80.4192 67° East 428 793 5,639 -716 Descending Atlanta Center
Mon 12:47:42 35.0683 -80.2831 72° East 419 776 4,968 -533 Descending Atlanta Center
Mon 12:48:42 35.1081 -80.1542 69° East 406 752 4,572 -225 Descending Atlanta Center
Mon 12:49:52 35.1594 -79.9994 68° East 384 711 4,481 -413 Descending Atlanta Center
Mon 12:51:17 35.2000 -79.8444 72° East 373 690 3,505 -831 Descending Washington Center
Mon 12:52:15 35.2292 -79.7239 73° East 352 652 2,499 -976 Descending Washington Center
Mon 12:53:15 35.2531 -79.6386 71° East 305 565 1,585 -756 Descending Washington Center
Mon 12:54:16 35.2725 -79.5583 73° East 271 502 975 -600 Descending Washington Center

Login

Don't have an account? Register now (free) for customized features, flight alerts, and more!